Time;durP1;ratioP1;P1;durP2;ratioP2;P2;SDS_P1;SDS_P2;PMS_P1;PMS_P2;Temp;Humidity;BMP_temperature;BMP_pressure;BME280_temperature;BME280_humidity;BME280_pressure;Samples;Min_cycle;Max_cycle;Signal;HPM_P1;HPM_P2
2023/12/29 00:01:18;;;;;;;10.90;10.40;;;;;;;;;;5067880;28;20094;-57
2023/12/29 00:03:43;;;;;;;10.95;10.45;;;;;;;;;;5069897;28;20066;-55
2023/12/29 00:06:08;;;;;;;11.35;10.75;;;;;;;;;;5068415;28;20012;-57
2023/12/29 00:08:36;;;;;;;10.80;10.30;;;;;;;;;;5071221;28;20035;-53
2023/12/29 00:11:01;;;;;;;10.75;10.25;;;;;;;;;;5069735;28;20027;-58
2023/12/29 00:13:27;;;;;;;10.80;10.30;;;;;;;;;;5070120;28;20024;-57
2023/12/29 00:15:52;;;;;;;10.55;10.05;;;;;;;;;;5067318;28;20678;-55
2023/12/29 00:18:18;;;;;;;10.90;10.40;;;;;;;;;;5067892;28;20048;-59
2023/12/29 00:20:43;;;;;;;10.80;10.30;;;;;;;;;;5067818;28;20507;-58
2023/12/29 00:23:08;;;;;;;11.00;10.50;;;;;;;;;;5071507;28;20073;-56
2023/12/29 00:25:37;;;;;;;10.95;10.45;;;;;;;;;;5072023;28;20112;-58
2023/12/29 00:28:03;;;;;;;11.35;10.75;;;;;;;;;;5071079;28;20647;-54
2023/12/29 00:30:29;;;;;;;11.32;10.73;;;;;;;;;;5068462;28;20408;-57
2023/12/29 00:32:55;;;;;;;10.60;10.10;;;;;;;;;;5065108;28;20017;-58
2023/12/29 00:35:20;;;;;;;10.85;10.35;;;;;;;;;;5069023;28;20069;-56
2023/12/29 00:37:45;;;;;;;11.30;10.70;;;;;;;;;;5070682;28;20484;-58
2023/12/29 00:40:11;;;;;;;10.88;10.38;;;;;;;;;;5062350;28;20024;-58
2023/12/29 00:42:36;;;;;;;11.57;10.98;;;;;;;;;;5069987;28;20021;-58
2023/12/29 00:45:02;;;;;;;10.80;10.30;;;;;;;;;;5070558;28;20444;-58
2023/12/29 00:47:28;;;;;;;11.05;10.55;;;;;;;;;;5066423;28;20021;-56
2023/12/29 00:49:53;;;;;;;10.57;10.07;;;;;;;;;;5067030;28;20047;-57
2023/12/29 00:52:18;;;;;;;10.65;10.15;;;;;;;;;;5072446;28;20139;-55
2023/12/29 00:54:44;;;;;;;11.00;10.50;;;;;;;;;;5070018;28;20472;-58
2023/12/29 00:57:09;;;;;;;11.35;10.75;;;;;;;;;;5065983;28;20520;-57
2023/12/29 00:59:36;;;;;;;11.13;10.60;;;;;;;;;;5070521;28;20025;-55
2023/12/29 01:02:02;;;;;;;11.40;10.80;;;;;;;;;;5065081;28;20020;-56
2023/12/29 01:04:27;;;;;;;11.05;10.55;;;;;;;;;;5070694;28;20024;-56
2023/12/29 01:06:53;;;;;;;10.70;10.20;;;;;;;;;;5066854;28;20075;-56
2023/12/29 01:09:19;;;;;;;10.85;10.35;;;;;;;;;;5068042;28;20500;-57
2023/12/29 01:11:44;;;;;;;10.85;10.35;;;;;;;;;;5067430;28;20052;-55
2023/12/29 01:14:10;;;;;;;10.50;10.00;;;;;;;;;;5067085;28;20027;-57
2023/12/29 01:16:35;;;;;;;11.07;10.48;;;;;;;;;;5067628;28;20112;-58
2023/12/29 01:19:01;;;;;;;10.50;10.00;;;;;;;;;;5070591;28;20032;-57
2023/12/29 01:21:26;;;;;;;10.70;10.20;;;;;;;;;;5068764;28;20473;-56
2023/12/29 01:23:51;;;;;;;10.40;9.90;;;;;;;;;;5070453;28;20017;-58
2023/12/29 01:26:17;;;;;;;10.88;10.38;;;;;;;;;;5070392;28;20019;-58
2023/12/29 01:28:42;;;;;;;11.77;11.18;;;;;;;;;;5067772;28;20069;-58
2023/12/29 01:31:08;;;;;;;10.70;10.20;;;;;;;;;;5062550;28;20013;-58
2023/12/29 01:33:34;;;;;;;11.20;10.60;;;;;;;;;;5072579;28;20031;-55
2023/12/29 01:36:00;;;;;;;10.70;10.20;;;;;;;;;;5067853;28;20020;-56
2023/12/29 01:38:25;;;;;;;10.52;10.02;;;;;;;;;;5070472;28;20025;-57
2023/12/29 01:40:50;;;;;;;10.88;10.38;;;;;;;;;;5074088;28;20450;-55
2023/12/29 01:43:16;;;;;;;10.63;10.13;;;;;;;;;;5067502;28;20564;-58
2023/12/29 01:45:41;;;;;;;10.68;10.18;;;;;;;;;;5071441;28;20066;-55
2023/12/29 01:48:07;;;;;;;11.35;10.75;;;;;;;;;;5071371;28;20047;-57
2023/12/29 01:50:33;;;;;;;11.10;10.52;;;;;;;;;;5070351;28;20507;-57
2023/12/29 01:52:59;;;;;;;11.60;11.00;;;;;;;;;;5073695;28;20051;-57
2023/12/29 01:55:25;;;;;;;12.15;11.45;;;;;;;;;;5072215;28;20024;-57
2023/12/29 01:57:51;;;;;;;12.35;11.65;;;;;;;;;;5063081;28;20095;-56
2023/12/29 02:00:17;;;;;;;13.32;12.43;;;;;;;;;;5069043;28;20107;-56
2023/12/29 02:02:42;;;;;;;12.18;11.48;;;;;;;;;;5071637;28;20087;-59
2023/12/29 02:05:08;;;;;;;11.55;10.95;;;;;;;;;;5069722;28;20092;-58
2023/12/29 02:07:34;;;;;;;11.80;11.15;;;;;;;;;;5070112;28;20431;-57
2023/12/29 02:10:00;;;;;;;12.23;11.52;;;;;;;;;;5072371;28;20025;-57
2023/12/29 02:12:26;;;;;;;11.50;10.90;;;;;;;;;;5069128;28;20029;-57
2023/12/29 02:14:51;;;;;;;10.80;10.30;;;;;;;;;;5073427;28;20077;-55
2023/12/29 02:17:27;;;;;;;10.43;9.93;;;;;;;;;;5075230;28;20057;-57
2023/12/29 02:19:53;;;;;;;10.45;9.95;;;;;;;;;;5073112;28;20033;-55
2023/12/29 02:22:18;;;;;;;10.85;10.35;;;;;;;;;;5073524;28;20032;-57
2023/12/29 02:24:52;;;;;;;11.25;10.65;;;;;;;;;;5074141;28;20024;-58
2023/12/29 02:27:18;;;;;;;11.40;10.80;;;;;;;;;;5063817;28;20451;-57
2023/12/29 02:29:51;;;;;;;11.50;10.90;;;;;;;;;;5073066;28;20108;-57
2023/12/29 02:32:18;;;;;;;11.50;10.80;;;;;;;;;;5042487;28;20017;-58
2023/12/29 02:34:44;;;;;;;11.55;10.93;;;;;;;;;;5059520;28;20253;-57
2023/12/29 02:37:12;;;;;;;10.77;10.27;;;;;;;;;;5073319;28;20040;-57
2023/12/29 02:39:37;;;;;;;11.65;11.05;;;;;;;;;;5069366;28;20028;-56
2023/12/29 02:42:02;;;;;;;11.23;10.63;;;;;;;;;;5064944;28;20074;-58
2023/12/29 02:44:28;;;;;;;10.68;10.18;;;;;;;;;;5069136;28;20017;-56
2023/12/29 02:46:53;;;;;;;10.70;10.20;;;;;;;;;;5069759;28;20029;-56
2023/12/29 02:49:18;;;;;;;10.57;10.07;;;;;;;;;;5064359;28;20112;-55
2023/12/29 02:51:45;;;;;;;10.73;10.23;;;;;;;;;;5073924;28;20024;-58
2023/12/29 02:54:11;;;;;;;10.75;10.25;;;;;;;;;;5072483;28;20426;-57
2023/12/29 02:56:36;;;;;;;11.50;10.90;;;;;;;;;;5072437;28;20023;-57
2023/12/29 02:59:02;;;;;;;10.90;10.40;;;;;;;;;;5064233;28;20048;-56
2023/12/29 03:01:28;;;;;;;10.80;10.30;;;;;;;;;;5070934;28;20095;-58
2023/12/29 03:03:54;;;;;;;11.48;10.88;;;;;;;;;;5072657;28;20039;-58
2023/12/29 03:06:19;;;;;;;11.32;10.75;;;;;;;;;;5072069;28;20016;-52
2023/12/29 03:08:44;;;;;;;11.23;10.68;;;;;;;;;;5073832;28;20515;-55
2023/12/29 03:11:10;;;;;;;11.30;10.70;;;;;;;;;;5071776;28;20059;-56
2023/12/29 03:13:35;;;;;;;10.90;10.40;;;;;;;;;;5071344;28;20023;-58
2023/12/29 03:16:00;;;;;;;10.63;10.13;;;;;;;;;;5064248;28;20022;-56
2023/12/29 03:18:26;;;;;;;10.32;9.82;;;;;;;;;;5069676;28;20025;-56
2023/12/29 03:20:51;;;;;;;11.27;10.68;;;;;;;;;;5069769;28;20079;-55
2023/12/29 03:23:16;;;;;;;10.60;10.10;;;;;;;;;;5071395;28;20483;-54
2023/12/29 03:25:42;;;;;;;11.13;10.52;;;;;;;;;;5071908;28;20026;-57
2023/12/29 03:28:07;;;;;;;11.00;10.43;;;;;;;;;;5070990;28;20016;-55
2023/12/29 03:30:32;;;;;;;11.13;10.52;;;;;;;;;;5066932;28;20043;-54
2023/12/29 03:32:58;;;;;;;11.52;10.93;;;;;;;;;;5071626;28;20048;-56
2023/12/29 03:35:23;;;;;;;11.20;10.60;;;;;;;;;;5071298;28;20104;-57
2023/12/29 03:37:48;;;;;;;10.98;10.40;;;;;;;;;;5068531;28;20020;-56
2023/12/29 03:40:14;;;;;;;11.27;10.68;;;;;;;;;;5070432;28;20028;-57
2023/12/29 03:42:39;;;;;;;11.07;10.48;;;;;;;;;;5071138;28;20053;-56
2023/12/29 03:45:05;;;;;;;11.43;10.82;;;;;;;;;;5071013;28;20054;-57
2023/12/29 03:47:31;;;;;;;11.20;10.60;;;;;;;;;;5071775;28;20020;-56
2023/12/29 03:49:56;;;;;;;11.68;11.07;;;;;;;;;;5066975;28;20424;-55
2023/12/29 03:52:22;;;;;;;10.73;10.23;;;;;;;;;;5065936;28;20035;-56
2023/12/29 03:54:47;;;;;;;10.90;10.40;;;;;;;;;;5070615;28;20016;-55
2023/12/29 03:57:13;;;;;;;10.95;10.43;;;;;;;;;;5070780;28;20028;-58
2023/12/29 03:59:38;;;;;;;11.27;10.68;;;;;;;;;;5069525;28;20043;-56
2023/12/29 04:02:04;;;;;;;11.23;10.63;;;;;;;;;;5070756;28;21752;-56
2023/12/29 04:04:29;;;;;;;10.52;10.02;;;;;;;;;;5066151;28;20017;-58
2023/12/29 04:06:54;;;;;;;10.63;10.13;;;;;;;;;;5068945;28;20372;-57
2023/12/29 04:09:20;;;;;;;11.27;10.68;;;;;;;;;;5068469;28;20127;-57
2023/12/29 04:11:46;;;;;;;11.05;10.45;;;;;;;;;;5066972;28;20032;-55
2023/12/29 04:14:12;;;;;;;10.68;10.18;;;;;;;;;;5076352;28;20031;-56
2023/12/29 04:16:38;;;;;;;10.70;10.20;;;;;;;;;;5068232;28;20412;-56
2023/12/29 04:19:03;;;;;;;11.55;10.95;;;;;;;;;;5052514;28;20021;-57
2023/12/29 04:21:29;;;;;;;11.00;10.50;;;;;;;;;;5069222;28;20085;-55
2023/12/29 04:23:54;;;;;;;11.07;10.50;;;;;;;;;;5063422;28;20025;-55
2023/12/29 04:26:19;;;;;;;11.45;10.85;;;;;;;;;;5068353;28;20093;-57
2023/12/29 04:28:45;;;;;;;10.90;10.40;;;;;;;;;;5069126;28;20032;-58
2023/12/29 04:31:10;;;;;;;11.18;10.57;;;;;;;;;;5070074;28;20020;-56
2023/12/29 04:33:35;;;;;;;11.27;10.68;;;;;;;;;;5069399;28;20025;-55
2023/12/29 04:36:01;;;;;;;10.90;10.40;;;;;;;;;;5069800;28;20032;-56
2023/12/29 04:38:26;;;;;;;10.38;9.88;;;;;;;;;;5067272;28;20020;-57
2023/12/29 04:40:51;;;;;;;11.45;10.85;;;;;;;;;;5069486;28;20016;-57
2023/12/29 04:43:16;;;;;;;11.07;10.55;;;;;;;;;;5071109;28;20044;-55
2023/12/29 04:45:42;;;;;;;10.48;9.98;;;;;;;;;;5068258;28;20176;-55
2023/12/29 04:48:07;;;;;;;11.05;10.45;;;;;;;;;;5070324;28;20388;-56
2023/12/29 04:50:32;;;;;;;10.77;10.27;;;;;;;;;;5070328;28;20047;-58
2023/12/29 04:52:58;;;;;;;11.00;10.43;;;;;;;;;;5072324;28;20088;-56
2023/12/29 04:55:23;;;;;;;11.05;10.45;;;;;;;;;;5070024;28;20048;-52
2023/12/29 04:57:48;;;;;;;10.68;10.18;;;;;;;;;;5073050;28;20043;-53
2023/12/29 05:00:14;;;;;;;10.48;9.98;;;;;;;;;;5068056;28;20614;-54
2023/12/29 05:02:39;;;;;;;10.50;10.00;;;;;;;;;;5065844;28;20050;-57
2023/12/29 05:05:05;;;;;;;10.30;9.80;;;;;;;;;;5069371;28;20009;-57
2023/12/29 05:07:31;;;;;;;10.77;10.27;;;;;;;;;;5062077;28;20024;-55
2023/12/29 05:09:56;;;;;;;10.80;10.30;;;;;;;;;;5070236;28;20070;-57
2023/12/29 05:12:21;;;;;;;11.60;11.00;;;;;;;;;;5074375;28;20039;-57
2023/12/29 05:14:47;;;;;;;11.23;10.63;;;;;;;;;;5070170;28;20032;-57
2023/12/29 05:17:12;;;;;;;11.20;10.60;;;;;;;;;;5072787;28;20056;-57
2023/12/29 05:19:37;;;;;;;11.35;10.75;;;;;;;;;;5071516;28;20179;-56
2023/12/29 05:22:03;;;;;;;11.45;10.85;;;;;;;;;;5074121;28;20086;-58
2023/12/29 05:24:28;;;;;;;11.25;10.65;;;;;;;;;;5071134;28;20020;-56
2023/12/29 05:26:53;;;;;;;12.52;11.82;;;;;;;;;;5071590;28;20016;-57
2023/12/29 05:29:19;;;;;;;11.38;10.77;;;;;;;;;;5079248;28;20112;-55
2023/12/29 05:31:44;;;;;;;11.30;10.70;;;;;;;;;;5073591;28;20024;-56
2023/12/29 05:34:10;;;;;;;11.77;11.18;;;;;;;;;;5073384;28;20016;-56
2023/12/29 05:36:35;;;;;;;11.68;11.07;;;;;;;;;;5065895;28;20086;-58
2023/12/29 05:39:01;;;;;;;10.82;10.32;;;;;;;;;;5073248;28;20043;-56
2023/12/29 05:41:26;;;;;;;11.35;10.75;;;;;;;;;;5073250;28;20016;-56
2023/12/29 05:43:51;;;;;;;11.30;10.70;;;;;;;;;;5065459;28;20032;-57
2023/12/29 05:46:17;;;;;;;10.77;10.20;;;;;;;;;;5073354;28;20497;-56
2023/12/29 05:48:42;;;;;;;11.50;10.90;;;;;;;;;;5070239;28;20032;-56
2023/12/29 05:51:08;;;;;;;11.30;10.70;;;;;;;;;;5065149;28;20031;-57
2023/12/29 05:53:34;;;;;;;11.30;10.70;;;;;;;;;;5073802;28;20013;-57
2023/12/29 05:55:59;;;;;;;10.98;10.40;;;;;;;;;;5073192;28;20452;-58
2023/12/29 05:58:24;;;;;;;11.05;10.55;;;;;;;;;;5072989;28;20116;-58
2023/12/29 06:00:50;;;;;;;10.80;10.30;;;;;;;;;;5071936;28;20036;-57
2023/12/29 06:03:15;;;;;;;10.73;10.23;;;;;;;;;;5072626;28;20040;-57
2023/12/29 06:05:41;;;;;;;11.05;10.52;;;;;;;;;;5072709;28;20013;-57
2023/12/29 06:08:06;;;;;;;11.15;10.57;;;;;;;;;;5074483;28;20027;-56
2023/12/29 06:10:32;;;;;;;11.25;10.65;;;;;;;;;;5071363;28;20063;-57
2023/12/29 06:12:57;;;;;;;11.35;10.75;;;;;;;;;;5075724;28;20029;-55
2023/12/29 06:15:22;;;;;;;11.45;10.85;;;;;;;;;;5073199;28;20028;-56
2023/12/29 06:17:48;;;;;;;11.90;11.30;;;;;;;;;;5072623;28;20040;-58
2023/12/29 06:20:13;;;;;;;10.70;10.20;;;;;;;;;;5066720;28;20024;-57
2023/12/29 06:22:40;;;;;;;11.13;10.55;;;;;;;;;;5072424;28;20399;-57
2023/12/29 06:25:08;;;;;;;10.88;10.38;;;;;;;;;;5078841;28;20016;-56
2023/12/29 06:27:37;;;;;;;11.40;10.80;;;;;;;;;;5074204;28;20099;-55
2023/12/29 06:30:02;;;;;;;11.35;10.75;;;;;;;;;;5072804;28;20050;-54
2023/12/29 06:32:28;;;;;;;11.38;10.77;;;;;;;;;;5072650;28;20028;-55
2023/12/29 06:34:53;;;;;;;11.13;10.55;;;;;;;;;;5073289;28;20028;-58
2023/12/29 06:37:18;;;;;;;10.63;10.13;;;;;;;;;;5072969;28;20476;-55
2023/12/29 06:39:44;;;;;;;11.65;11.05;;;;;;;;;;5067049;28;20020;-54
2023/12/29 06:42:09;;;;;;;12.05;11.38;;;;;;;;;;5072117;28;20403;-56
2023/12/29 06:44:34;;;;;;;11.07;10.57;;;;;;;;;;5068053;28;20017;-58
2023/12/29 06:47:00;;;;;;;11.32;10.73;;;;;;;;;;5066109;28;20090;-57
2023/12/29 06:49:25;;;;;;;10.95;10.45;;;;;;;;;;5072728;28;20033;-59
2023/12/29 06:51:51;;;;;;;10.98;10.45;;;;;;;;;;5072750;28;20475;-55
2023/12/29 06:54:16;;;;;;;10.70;10.20;;;;;;;;;;5074815;28;20443;-56
2023/12/29 06:56:42;;;;;;;11.70;11.10;;;;;;;;;;5072192;28;20365;-56
2023/12/29 06:59:07;;;;;;;10.40;9.90;;;;;;;;;;5068882;28;20419;-56
2023/12/29 07:01:32;;;;;;;10.88;10.38;;;;;;;;;;5067940;28;20052;-57
2023/12/29 07:03:58;;;;;;;11.20;10.60;;;;;;;;;;5071086;28;20015;-56
2023/12/29 07:06:23;;;;;;;11.32;10.73;;;;;;;;;;5068682;28;20029;-57
2023/12/29 07:08:48;;;;;;;10.65;10.15;;;;;;;;;;5074187;28;20016;-53
2023/12/29 07:11:14;;;;;;;11.13;10.52;;;;;;;;;;5070930;28;20028;-56
2023/12/29 07:13:39;;;;;;;10.75;10.25;;;;;;;;;;5073728;28;20499;-57
2023/12/29 07:16:05;;;;;;;11.10;10.50;;;;;;;;;;5070120;28;20024;-58
2023/12/29 07:18:30;;;;;;;10.73;10.23;;;;;;;;;;5069078;28;20079;-58
2023/12/29 07:20:55;;;;;;;11.40;10.80;;;;;;;;;;5065006;28;20009;-58
2023/12/29 07:23:21;;;;;;;10.80;10.30;;;;;;;;;;5071532;28;20096;-56
2023/12/29 07:25:47;;;;;;;10.95;10.45;;;;;;;;;;5071032;28;20074;-55
2023/12/29 07:28:12;;;;;;;11.35;10.75;;;;;;;;;;5065467;28;20832;-57
2023/12/29 07:30:38;;;;;;;11.00;10.50;;;;;;;;;;5071095;28;20107;-59
2023/12/29 07:33:03;;;;;;;10.85;10.35;;;;;;;;;;5071303;28;20034;-59
2023/12/29 07:35:29;;;;;;;10.80;10.30;;;;;;;;;;5071730;28;20017;-59
2023/12/29 07:37:54;;;;;;;11.15;10.65;;;;;;;;;;5071193;28;20173;-56
2023/12/29 07:40:19;;;;;;;10.80;10.30;;;;;;;;;;5070981;28;20028;-58
2023/12/29 07:42:46;;;;;;;11.13;10.63;;;;;;;;;;5071605;28;20028;-58
2023/12/29 07:45:12;;;;;;;10.98;10.48;;;;;;;;;;5071513;28;20018;-57
2023/12/29 07:47:37;;;;;;;10.85;10.35;;;;;;;;;;5070044;28;20345;-57
2023/12/29 07:50:03;;;;;;;10.85;10.35;;;;;;;;;;5069858;28;20360;-55
2023/12/29 07:52:29;;;;;;;11.25;10.75;;;;;;;;;;5071526;28;20032;-56
2023/12/29 07:54:55;;;;;;;11.20;10.70;;;;;;;;;;5072678;28;20429;-57
2023/12/29 07:57:20;;;;;;;11.23;10.73;;;;;;;;;;5068907;28;20028;-57
2023/12/29 07:59:45;;;;;;;11.60;11.10;;;;;;;;;;5070712;28;20046;-56
2023/12/29 08:02:11;;;;;;;11.90;11.30;;;;;;;;;;5071805;28;20474;-54
2023/12/29 08:04:37;;;;;;;12.02;11.43;;;;;;;;;;5074240;28;20028;-58
2023/12/29 08:07:02;;;;;;;11.25;10.75;;;;;;;;;;5071345;28;20016;-58
2023/12/29 08:09:28;;;;;;;11.82;11.27;;;;;;;;;;5063401;28;20121;-59
2023/12/29 08:11:53;;;;;;;11.80;11.30;;;;;;;;;;5070435;28;20033;-59
2023/12/29 08:14:19;;;;;;;11.82;11.32;;;;;;;;;;5071256;28;20426;-56
2023/12/29 08:16:44;;;;;;;11.50;11.00;;;;;;;;;;5061166;28;20040;-59
2023/12/29 08:19:10;;;;;;;11.63;11.13;;;;;;;;;;5069147;28;20017;-59
2023/12/29 08:21:35;;;;;;;12.40;11.80;;;;;;;;;;5070653;28;20495;-59
2023/12/29 08:24:04;;;;;;;12.75;12.15;;;;;;;;;;5063767;28;20498;-56
2023/12/29 08:26:29;;;;;;;13.13;12.52;;;;;;;;;;5070640;28;20359;-58
2023/12/29 08:28:55;;;;;;;12.40;11.82;;;;;;;;;;5069376;28;20032;-58
2023/12/29 08:31:22;;;;;;;12.30;11.70;;;;;;;;;;5071592;28;20024;-60
2023/12/29 08:33:47;;;;;;;12.80;12.20;;;;;;;;;;5064417;28;20052;-58
2023/12/29 08:36:13;;;;;;;12.98;12.38;;;;;;;;;;5070722;28;20475;-57
2023/12/29 08:38:38;;;;;;;12.70;12.10;;;;;;;;;;5066581;28;20031;-59
2023/12/29 08:41:04;;;;;;;13.18;12.57;;;;;;;;;;5070769;28;20100;-58
2023/12/29 08:43:29;;;;;;;12.52;11.93;;;;;;;;;;5067355;28;20024;-60
2023/12/29 08:45:55;;;;;;;12.23;11.68;;;;;;;;;;5070466;28;20349;-58
2023/12/29 08:48:20;;;;;;;12.77;12.18;;;;;;;;;;5060553;28;20049;-57
2023/12/29 08:50:45;;;;;;;12.93;12.32;;;;;;;;;;5070766;28;20019;-58
2023/12/29 08:53:11;;;;;;;12.85;12.25;;;;;;;;;;5065477;28;20059;-59
2023/12/29 08:55:36;;;;;;;12.80;12.20;;;;;;;;;;5066401;28;20017;-57
2023/12/29 08:58:02;;;;;;;13.15;12.55;;;;;;;;;;5060316;28;20008;-59
2023/12/29 09:00:30;;;;;;;12.38;11.77;;;;;;;;;;5078966;28;20069;-59
2023/12/29 09:02:55;;;;;;;12.05;11.55;;;;;;;;;;5069901;28;20181;-58
2023/12/29 09:05:20;;;;;;;12.98;12.38;;;;;;;;;;5065141;28;20100;-60
2023/12/29 09:07:46;;;;;;;13.23;12.63;;;;;;;;;;5069186;28;20464;-59
2023/12/29 09:10:12;;;;;;;12.45;11.85;;;;;;;;;;5068729;28;20025;-59
2023/12/29 09:12:38;;;;;;;12.60;12.00;;;;;;;;;;5068642;28;20028;-58
2023/12/29 09:15:04;;;;;;;12.27;11.70;;;;;;;;;;5069918;28;20032;-56
2023/12/29 09:17:30;;;;;;;12.43;11.82;;;;;;;;;;5067812;28;20044;-59
2023/12/29 09:19:55;;;;;;;12.18;11.63;;;;;;;;;;5066331;28;20051;-59
2023/12/29 09:22:20;;;;;;;12.50;11.90;;;;;;;;;;5070361;28;20016;-58
2023/12/29 09:24:46;;;;;;;12.43;11.82;;;;;;;;;;5067724;28;20101;-58
2023/12/29 09:27:11;;;;;;;13.00;12.40;;;;;;;;;;5070020;28;20024;-59
2023/12/29 09:29:37;;;;;;;13.00;12.40;;;;;;;;;;5068065;28;20028;-57
2023/12/29 09:32:02;;;;;;;13.20;12.60;;;;;;;;;;5068677;28;20536;-57
2023/12/29 09:34:27;;;;;;;13.40;12.80;;;;;;;;;;5064532;28;20016;-58
2023/12/29 09:36:53;;;;;;;13.23;12.63;;;;;;;;;;5069486;28;20024;-58
2023/12/29 09:39:18;;;;;;;12.82;12.23;;;;;;;;;;5064113;28;20048;-60
2023/12/29 09:41:45;;;;;;;12.90;12.30;;;;;;;;;;5069832;28;20017;-58
2023/12/29 09:44:15;;;;;;;13.70;13.02;;;;;;;;;;5063786;28;20548;-60
2023/12/29 09:46:41;;;;;;;12.95;12.35;;;;;;;;;;5064297;28;20021;-57
2023/12/29 09:49:07;;;;;;;12.73;12.13;;;;;;;;;;5061164;28;20391;-57
2023/12/29 09:51:33;;;;;;;13.00;12.40;;;;;;;;;;5068310;28;20029;-58
2023/12/29 09:53:59;;;;;;;13.10;12.50;;;;;;;;;;5075877;28;20020;-58
2023/12/29 09:56:24;;;;;;;13.50;12.80;;;;;;;;;;5069772;28;20056;-55
2023/12/29 09:58:51;;;;;;;14.38;13.63;;;;;;;;;;5068510;28;20056;-56
2023/12/29 10:01:18;;;;;;;13.73;13.02;;;;;;;;;;5071490;28;20021;-58
2023/12/29 10:03:43;;;;;;;13.48;12.77;;;;;;;;;;5068000;28;20024;-55
2023/12/29 10:06:09;;;;;;;13.07;12.48;;;;;;;;;;5072734;28;20380;-55
2023/12/29 10:08:35;;;;;;;12.20;11.60;;;;;;;;;;5079782;28;20012;-58
2023/12/29 10:11:01;;;;;;;12.23;11.63;;;;;;;;;;5072008;28;20020;-57
2023/12/29 10:13:29;;;;;;;12.57;11.98;;;;;;;;;;5072847;28;20095;-56
2023/12/29 10:16:04;;;;;;;12.23;11.63;;;;;;;;;;5064848;28;20012;-59
2023/12/29 10:18:41;;;;;;;14.88;14.07;;;;;;;;;;5076888;28;20044;-57
2023/12/29 10:21:09;;;;;;;12.98;12.32;;;;;;;;;;5073268;28;20078;-60
2023/12/29 10:23:37;;;;;;;12.27;11.68;;;;;;;;;;5071417;28;20048;-59
2023/12/29 10:26:03;;;;;;;13.52;12.82;;;;;;;;;;5070622;28;20012;-57
2023/12/29 10:28:28;;;;;;;12.48;11.88;;;;;;;;;;5075623;28;20499;-58
2023/12/29 10:30:54;;;;;;;12.00;11.40;;;;;;;;;;5070326;28;20119;-60
2023/12/29 10:33:21;;;;;;;12.23;11.63;;;;;;;;;;5075653;28;20468;-59
2023/12/29 10:36:07;;;;;;;13.15;12.45;;;;;;;;;;5071516;28;20026;-58
2023/12/29 10:38:32;;;;;;;12.43;11.82;;;;;;;;;;5067643;28;20452;-58
2023/12/29 10:41:14;;;;;;;13.50;12.80;;;;;;;;;;5066961;28;20048;-57
2023/12/29 10:43:40;;;;;;;12.68;12.07;;;;;;;;;;5064246;28;20095;-58
2023/12/29 10:46:06;;;;;;;12.43;11.82;;;;;;;;;;5069655;28;20100;-57
2023/12/29 10:48:32;;;;;;;12.98;12.27;;;;;;;;;;5068869;28;20039;-58
2023/12/29 10:50:58;;;;;;;11.85;11.25;;;;;;;;;;5070451;28;20024;-54
2023/12/29 10:53:23;;;;;;;11.48;10.98;;;;;;;;;;5063650;28;20021;-56
2023/12/29 10:55:48;;;;;;;12.20;11.60;;;;;;;;;;5070111;28;20119;-56
2023/12/29 10:58:15;;;;;;;11.73;11.18;;;;;;;;;;5070151;28;20095;-56
2023/12/29 11:00:41;;;;;;;12.27;11.68;;;;;;;;;;5070994;28;20498;-56
2023/12/29 11:03:07;;;;;;;13.15;12.45;;;;;;;;;;5069539;28;20028;-57
2023/12/29 11:05:33;;;;;;;12.05;11.45;;;;;;;;;;5069378;28;20017;-57
2023/12/29 11:07:59;;;;;;;11.52;11.02;;;;;;;;;;5073127;28;20487;-57
2023/12/29 11:10:25;;;;;;;12.35;11.75;;;;;;;;;;5078012;28;20029;-56
2023/12/29 11:12:51;;;;;;;12.10;11.50;;;;;;;;;;5067043;28;20035;-57
2023/12/29 11:15:17;;;;;;;12.18;11.57;;;;;;;;;;5071947;28;20037;-56
2023/12/29 11:18:01;;;;;;;11.93;11.32;;;;;;;;;;5070961;28;20401;-52
2023/12/29 11:20:26;;;;;;;11.52;11.00;;;;;;;;;;5066071;28;20024;-53
2023/12/29 11:22:51;;;;;;;12.15;11.55;;;;;;;;;;5072543;28;20063;-56
2023/12/29 11:25:17;;;;;;;12.00;11.40;;;;;;;;;;5067982;28;20406;-58
2023/12/29 11:27:42;;;;;;;10.95;10.45;;;;;;;;;;5060394;28;20031;-57
2023/12/29 11:30:09;;;;;;;11.45;10.95;;;;;;;;;;5070021;28;20098;-57
2023/12/29 11:32:53;;;;;;;11.50;11.00;;;;;;;;;;5071007;28;20028;-57
2023/12/29 11:35:20;;;;;;;11.48;10.95;;;;;;;;;;5066738;28;20028;-57
2023/12/29 11:38:00;;;;;;;11.40;10.90;;;;;;;;;;5071323;28;20028;-58
2023/12/29 11:40:45;;;;;;;11.90;11.30;;;;;;;;;;5068834;28;20021;-58
2023/12/29 11:43:14;;;;;;;11.52;11.02;;;;;;;;;;5067556;28;20029;-55
2023/12/29 11:45:40;;;;;;;12.00;11.40;;;;;;;;;;5072184;28;20028;-55
2023/12/29 11:48:05;;;;;;;11.65;11.15;;;;;;;;;;5072061;28;20016;-56
2023/12/29 11:50:31;;;;;;;12.07;11.48;;;;;;;;;;5070520;28;20454;-54
2023/12/29 11:52:57;;;;;;;11.93;11.32;;;;;;;;;;5069771;28;20063;-56
2023/12/29 11:55:27;;;;;;;12.10;11.50;;;;;;;;;;5065973;28;20431;-56
2023/12/29 11:57:53;;;;;;;11.32;10.82;;;;;;;;;;5065162;28;20025;-57
2023/12/29 12:00:18;;;;;;;12.55;11.95;;;;;;;;;;5066755;28;20030;-55
2023/12/29 12:02:44;;;;;;;11.45;10.95;;;;;;;;;;5068018;28;20042;-57
2023/12/29 12:05:09;;;;;;;12.05;11.45;;;;;;;;;;5070844;28;20028;-57
2023/12/29 12:07:35;;;;;;;12.10;11.50;;;;;;;;;;5061471;28;20016;-57
2023/12/29 12:10:19;;;;;;;12.15;11.55;;;;;;;;;;5065736;28;20392;-52
2023/12/29 12:12:45;;;;;;;12.40;11.80;;;;;;;;;;5071118;28;20408;-56
2023/12/29 12:15:31;;;;;;;14.45;13.65;;;;;;;;;;5071240;28;20029;-56
2023/12/29 12:17:57;;;;;;;13.55;12.85;;;;;;;;;;5069100;28;20078;-58
2023/12/29 12:20:23;;;;;;;13.13;12.43;;;;;;;;;;5070143;28;20506;-56
2023/12/29 12:22:50;;;;;;;12.63;12.02;;;;;;;;;;5064543;28;20033;-54
2023/12/29 12:25:15;;;;;;;12.30;11.70;;;;;;;;;;5068944;28;20028;-57
2023/12/29 12:27:41;;;;;;;11.70;11.20;;;;;;;;;;5070546;28;20387;-53
2023/12/29 12:30:09;;;;;;;12.98;12.30;;;;;;;;;;5076298;28;20028;-55
2023/12/29 12:32:35;;;;;;;12.45;11.85;;;;;;;;;;5071197;28;20028;-54
2023/12/29 12:35:01;;;;;;;11.57;11.07;;;;;;;;;;5068692;28;20027;-55
2023/12/29 12:37:27;;;;;;;12.02;11.43;;;;;;;;;;5068645;28;20419;-56
2023/12/29 12:39:53;;;;;;;12.10;11.50;;;;;;;;;;5065777;28;20069;-55
2023/12/29 12:42:22;;;;;;;11.95;11.35;;;;;;;;;;5071472;28;20111;-55
2023/12/29 12:45:03;;;;;;;12.00;11.40;;;;;;;;;;5068927;28;20019;-53
2023/12/29 12:47:37;;;;;;;12.27;11.68;;;;;;;;;;5068556;28;20384;-54
2023/12/29 12:50:04;;;;;;;11.70;11.13;;;;;;;;;;5069652;28;20016;-57
2023/12/29 12:52:30;;;;;;;12.15;11.55;;;;;;;;;;5068616;28;20761;-56
2023/12/29 12:54:55;;;;;;;12.25;11.65;;;;;;;;;;5068429;28;20020;-55
2023/12/29 12:57:21;;;;;;;12.48;11.88;;;;;;;;;;5065510;28;20090;-56
2023/12/29 12:59:47;;;;;;;12.30;11.70;;;;;;;;;;5070529;28;20029;-53
2023/12/29 13:02:13;;;;;;;11.38;10.88;;;;;;;;;;5068817;28;20056;-56
2023/12/29 13:04:39;;;;;;;13.00;12.30;;;;;;;;;;5065482;28;20047;-56
2023/12/29 13:07:05;;;;;;;11.77;11.18;;;;;;;;;;5065227;28;20021;-55
2023/12/29 13:09:31;;;;;;;11.32;10.82;;;;;;;;;;5077486;28;20567;-53
2023/12/29 13:12:09;;;;;;;12.07;11.48;;;;;;;;;;5064775;28;20024;-53
2023/12/29 13:14:34;;;;;;;11.73;11.15;;;;;;;;;;5064374;28;20439;-53
2023/12/29 13:17:04;;;;;;;11.40;10.90;;;;;;;;;;5065544;28;20044;-53
2023/12/29 13:19:30;;;;;;;12.05;11.45;;;;;;;;;;5065062;28;20385;-55
2023/12/29 13:21:56;;;;;;;11.80;11.20;;;;;;;;;;5064611;28;20017;-57
2023/12/29 13:24:22;;;;;;;11.90;11.30;;;;;;;;;;5071149;28;20670;-58
2023/12/29 13:26:52;;;;;;;12.43;11.82;;;;;;;;;;5070608;28;20017;-53
2023/12/29 13:29:18;;;;;;;12.13;11.52;;;;;;;;;;5072680;28;20107;-56
2023/12/29 13:31:44;;;;;;;11.93;11.32;;;;;;;;;;5070081;28;20052;-56
2023/12/29 13:34:15;;;;;;;12.07;11.48;;;;;;;;;;5073717;28;20028;-57
2023/12/29 13:36:49;;;;;;;12.20;11.60;;;;;;;;;;5072152;28;20398;-53
2023/12/29 13:39:35;;;;;;;13.05;12.35;;;;;;;;;;5069517;28;20370;-59
2023/12/29 13:42:01;;;;;;;13.00;12.30;;;;;;;;;;5068905;28;20024;-56
2023/12/29 13:44:27;;;;;;;13.20;12.50;;;;;;;;;;5071439;28;20099;-55
2023/12/29 13:46:54;;;;;;;13.18;12.48;;;;;;;;;;5072367;28;21427;-56
2023/12/29 13:49:19;;;;;;;13.40;12.70;;;;;;;;;;5070202;28;20033;-56
2023/12/29 13:51:44;;;;;;;12.40;11.80;;;;;;;;;;5077809;28;20034;-57
2023/12/29 13:54:10;;;;;;;13.10;12.40;;;;;;;;;;5073660;28;20125;-55
2023/12/29 13:56:35;;;;;;;11.85;11.25;;;;;;;;;;5070811;28;20017;-57
2023/12/29 13:59:04;;;;;;;12.93;12.23;;;;;;;;;;5078340;28;20113;-56
2023/12/29 14:01:34;;;;;;;11.70;11.10;;;;;;;;;;5067530;28;20464;-56
2023/12/29 14:04:02;;;;;;;12.80;12.18;;;;;;;;;;5062972;28;20016;-54
2023/12/29 14:06:51;;;;;;;12.15;11.55;;;;;;;;;;5072658;28;20013;-55
2023/12/29 14:09:17;;;;;;;12.43;11.82;;;;;;;;;;5060584;28;20044;-55
2023/12/29 14:11:46;;;;;;;11.27;10.77;;;;;;;;;;5065717;28;20025;-55